Flight Track Log - Related Links

Times and Time Zones

All times are in EDT time to prevent confusion due to time zone crossing. See the EJA396 flight status page for this flight to view local times or setup timezone preferences in your user account.

Time Position Orientation Groundspeed Altitude Reporting Facility
EDT Latitude Longitude Course Direction KTS MPH feet Rate Location/Type
Wed 03:00:35 PM 39.2000 -76.6833 252° West 198 228 2,500  Level Potomac TRACON
Wed 03:01:35 PM 39.1833 -76.7500 252° West 255 293 4,400 2,050 Climbing Potomac TRACON
Wed 03:02:35 PM 39.1167 -76.7167 159° South 268 308 6,600 2,281 Climbing Potomac TRACON
Wed 03:03:36 PM 39.0500 -76.6333 136° Southeast 297 342 9,000 2,975 Climbing Potomac TRACON
Wed 03:04:36 PM 39.0000 -76.5500 128° Southeast 336 387 12,600 1,400 Climbing Potomac TRACON
Wed 03:07:06 PM 38.7892 -76.4653 163° South 332 382 13,900 402 Climbing Washington Center
Wed 03:08:05 PM 38.7114 -76.5547 222° Southwest 319 367 14,000 50 Climbing Washington Center
Wed 03:09:05 PM 38.6378 -76.6414 223° Southwest 337 388 14,000  Level Washington Center
Wed 03:10:06 PM 38.5558 -76.7172 216° Southwest 353 406 14,000  Level Washington Center
Wed 03:11:06 PM 38.4514 -76.7183 180° South 346 398 14,000  Level Washington Center
Wed 03:12:04 PM 38.3433 -76.7008 173° South 367 422 14,000  Level Washington Center
Wed 03:13:05 PM 38.2286 -76.6808 172° South 372 428 14,000  Level Washington Center
Wed 03:14:05 PM 38.1247 -76.6661 174° South 372 428 14,000  Level Washington Center
Wed 03:15:06 PM 38.0225 -76.6697 182° South 372 428 14,000  Level Washington Center
Wed 03:16:04 PM 37.9181 -76.6789 184° South 372 428 14,000 -403 Level Washington Center
Wed 03:17:05 PM 37.8183 -76.6381 162° South 363 418 13,200 -1,109 Descending Washington Center
Wed 03:18:03 PM 37.7481 -76.5503 135° Southeast 380 437 11,800 -1,462 Descending Washington Center
Wed 03:19:04 PM 37.6781 -76.4472 131° Southeast 360 414 10,300 -893 Descending Washington Center
Wed 03:20:04 PM 37.6117 -76.3600 134° Southeast 358 412 10,000 -198 Descending Washington Center
Wed 03:21:05 PM 37.5119 -76.3222 163° South 353 406 9,900 -189 Descending Washington Center
Wed 03:22:11 PM 37.4119 -76.3056 172° South 302 348 9,600 -793 Descending Washington Center
Wed 03:23:06 PM 37.3389 -76.2919 172° South 321 369 8,300 -1,487 Descending Washington Center
Wed 03:24:04 PM 37.2619 -76.2756 170° South 301 346 6,800 -1,513 Descending Washington Center
Wed 03:25:05 PM 37.1847 -76.2592 170° South 289 333 5,300 -885 Descending Washington Center
Wed 03:26:06 PM 37.1078 -76.2456 172° South 289 333 5,000 -202 Descending Washington Center
Wed 03:27:04 PM 37.0328 -76.2294 170° South 284 327 4,900 -574 Descending Washington Center
Wed 03:28:22 PM 36.9408 -76.2417 186° South 254 292 3,700 -923 Descending Washington Center

Login

Don't have an account? Register now (free) for customized features, flight alerts, and more!